Sunrise, Florida
Current Conditions -  °F | °C
As of 6:53 AM on Sunday 25 Jan 2015 (Local Time) from KFXE Reporting Station
Clear Clear  
Wind Chill: 49°   Ceiling: Unl
Heat Index: 49°   Visibility: 10mi
Dew Point: 46°   Wind: 3mph
Humidity: 90%   Direction: 310°NW
Pressure: 30.07"   Gusts: NA
Location:  26.15°N, 80.33°W
Report Text: KFXE 251153Z AUTO 31003KT 10SM CLR 09/08 A3007 RMK AO2 SLP186 T00940078 10133 20094 53018 TSNO
Loading
Personal Weather Stations






























Interactive Weather Map New forecast layout! Learn more

10-Day Weather Forecast

Advertisements
Track Severe Weather on mobile